Kafr el-Dauwar, Egypt
Current Conditions -  °F | °C
As of 1:00 PM on Friday 24 Oct 2014 (Local Time) from HEAX Reporting Station
Clear Clear  
Wind Chill: 90°   Ceiling: Unl
Heat Index: 90°   Visibility: 6mi
Dew Point: 43°   Wind: 8mph
Humidity: 20%   Direction: 220°SW
Pressure: 29.97"   Gusts: NA
Location:  31.13°N, 30.12°E
Report Text: HEAX 241100Z 22007KT CAVOK 32/06 Q1015 NOSIG
Loading
Personal Weather Stations






























Interactive Weather Map New forecast layout! Learn more

10-Day Weather Forecast

Advertisements
Track Severe Weather on mobile